Christmas, Michigan
Current Conditions -  °F | °C
As of 3:34 PM on Sunday 25 Jan 2015 (Local Time) from KISQ Reporting Station
Clear Clear  
Wind Chill: 18°   Ceiling: Unl
Heat Index: 18°   Visibility: 10mi
Dew Point:   Wind: 0mph
Humidity: 58%   Direction: NA
Pressure: 30.06"   Gusts: NA
Location:  46.4479°N, 86.4779°W
Report Text: KISQ 252034Z AUTO 00000KT 10SM CLR M08/M15 A3006 RMK AO2 T10801150
Loading
Personal Weather Stations






























Interactive Weather Map New forecast layout! Learn more

10-Day Weather Forecast

Advertisements
Track Severe Weather on mobile